sensor_id;sensor_type;location;lat;lon;timestamp;temperature;humidity
2226;DHT22;1119;48.288;8.726;2022-11-30T00:01:16;5.20;99.90
2226;DHT22;1119;48.288;8.726;2022-11-30T00:03:45;5.20;99.90
2226;DHT22;1119;48.288;8.726;2022-11-30T00:06:15;5.20;99.90
2226;DHT22;1119;48.288;8.726;2022-11-30T00:08:47;5.30;99.90
2226;DHT22;1119;48.288;8.726;2022-11-30T00:11:16;5.30;99.90
2226;DHT22;1119;48.288;8.726;2022-11-30T00:13:45;5.30;99.90
2226;DHT22;1119;48.288;8.726;2022-11-30T00:16:13;5.30;99.90
2226;DHT22;1119;48.288;8.726;2022-11-30T00:18:40;5.30;99.90
2226;DHT22;1119;48.288;8.726;2022-11-30T00:21:11;5.30;99.90
2226;DHT22;1119;48.288;8.726;2022-11-30T00:23:43;5.30;99.90
2226;DHT22;1119;48.288;8.726;2022-11-30T00:26:12;5.30;99.90
2226;DHT22;1119;48.288;8.726;2022-11-30T00:28:41;5.30;99.90
2226;DHT22;1119;48.288;8.726;2022-11-30T00:31:11;5.20;99.90
2226;DHT22;1119;48.288;8.726;2022-11-30T00:33:39;5.20;99.90
2226;DHT22;1119;48.288;8.726;2022-11-30T00:36:10;5.20;99.90
2226;DHT22;1119;48.288;8.726;2022-11-30T00:38:39;5.30;99.90
2226;DHT22;1119;48.288;8.726;2022-11-30T00:41:07;5.30;99.90
2226;DHT22;1119;48.288;8.726;2022-11-30T00:43:35;5.30;99.90
2226;DHT22;1119;48.288;8.726;2022-11-30T00:46:02;5.30;99.90
2226;DHT22;1119;48.288;8.726;2022-11-30T00:48:30;5.30;99.90
2226;DHT22;1119;48.288;8.726;2022-11-30T00:50:57;5.30;99.90
2226;DHT22;1119;48.288;8.726;2022-11-30T00:53:24;5.30;99.90
2226;DHT22;1119;48.288;8.726;2022-11-30T00:55:53;5.30;99.90
2226;DHT22;1119;48.288;8.726;2022-11-30T00:58:21;5.30;99.90
2226;DHT22;1119;48.288;8.726;2022-11-30T01:00:48;5.30;99.90
2226;DHT22;1119;48.288;8.726;2022-11-30T01:03:15;5.20;99.90
2226;DHT22;1119;48.288;8.726;2022-11-30T01:05:43;5.20;99.90
2226;DHT22;1119;48.288;8.726;2022-11-30T01:08:11;5.20;99.90
2226;DHT22;1119;48.288;8.726;2022-11-30T01:10:41;5.30;99.90
2226;DHT22;1119;48.288;8.726;2022-11-30T01:13:11;5.30;99.90
2226;DHT22;1119;48.288;8.726;2022-11-30T01:15:40;5.30;99.90
2226;DHT22;1119;48.288;8.726;2022-11-30T01:18:10;5.30;99.90
2226;DHT22;1119;48.288;8.726;2022-11-30T01:20:39;5.30;99.90
2226;DHT22;1119;48.288;8.726;2022-11-30T01:23:07;5.30;99.90
2226;DHT22;1119;48.288;8.726;2022-11-30T01:25:34;5.30;99.90
2226;DHT22;1119;48.288;8.726;2022-11-30T01:28:01;5.30;99.90
2226;DHT22;1119;48.288;8.726;2022-11-30T01:30:30;5.30;99.90
2226;DHT22;1119;48.288;8.726;2022-11-30T01:33:01;5.20;99.90
2226;DHT22;1119;48.288;8.726;2022-11-30T01:35:28;5.20;99.90
2226;DHT22;1119;48.288;8.726;2022-11-30T01:37:55;5.20;99.90
2226;DHT22;1119;48.288;8.726;2022-11-30T01:40:23;5.10;99.90
2226;DHT22;1119;48.288;8.726;2022-11-30T01:42:50;5.10;99.90
2226;DHT22;1119;48.288;8.726;2022-11-30T01:45:17;5.20;99.90
2226;DHT22;1119;48.288;8.726;2022-11-30T01:47:49;5.20;99.90
2226;DHT22;1119;48.288;8.726;2022-11-30T01:50:21;5.20;99.90
2226;DHT22;1119;48.288;8.726;2022-11-30T01:52:53;5.10;99.90
2226;DHT22;1119;48.288;8.726;2022-11-30T01:55:25;5.10;99.90
2226;DHT22;1119;48.288;8.726;2022-11-30T01:57:56;5.10;99.90
2226;DHT22;1119;48.288;8.726;2022-11-30T02:00:25;5.10;99.90
2226;DHT22;1119;48.288;8.726;2022-11-30T02:02:58;5.00;99.90
2226;DHT22;1119;48.288;8.726;2022-11-30T02:05:28;5.00;99.90
2226;DHT22;1119;48.288;8.726;2022-11-30T02:07:55;5.10;99.90
2226;DHT22;1119;48.288;8.726;2022-11-30T02:10:26;5.10;99.90
2226;DHT22;1119;48.288;8.726;2022-11-30T02:13:26;5.10;99.90
2226;DHT22;1119;48.288;8.726;2022-11-30T02:16:06;5.00;99.90
2226;DHT22;1119;48.288;8.726;2022-11-30T02:18:45;5.00;99.90
2226;DHT22;1119;48.288;8.726;2022-11-30T02:21:20;5.10;99.90
2226;DHT22;1119;48.288;8.726;2022-11-30T02:27:22;5.00;99.90
2226;DHT22;1119;48.288;8.726;2022-11-30T02:30:00;5.10;99.90
2226;DHT22;1119;48.288;8.726;2022-11-30T02:32:32;5.10;99.90
2226;DHT22;1119;48.288;8.726;2022-11-30T02:35:04;5.10;99.90
2226;DHT22;1119;48.288;8.726;2022-11-30T02:37:33;5.10;99.90
2226;DHT22;1119;48.288;8.726;2022-11-30T02:40:07;5.10;99.90
2226;DHT22;1119;48.288;8.726;2022-11-30T02:42:35;5.10;99.90
2226;DHT22;1119;48.288;8.726;2022-11-30T02:45:05;5.00;99.90
2226;DHT22;1119;48.288;8.726;2022-11-30T02:47:38;5.00;99.90
2226;DHT22;1119;48.288;8.726;2022-11-30T02:50:10;5.00;99.90
2226;DHT22;1119;48.288;8.726;2022-11-30T02:52:40;5.00;99.90
2226;DHT22;1119;48.288;8.726;2022-11-30T02:55:09;5.10;99.90
2226;DHT22;1119;48.288;8.726;2022-11-30T02:57:40;5.10;99.90
2226;DHT22;1119;48.288;8.726;2022-11-30T03:00:11;5.10;99.90
2226;DHT22;1119;48.288;8.726;2022-11-30T03:02:39;5.10;99.90
2226;DHT22;1119;48.288;8.726;2022-11-30T03:05:07;5.00;99.90
2226;DHT22;1119;48.288;8.726;2022-11-30T03:07:36;5.00;99.90
2226;DHT22;1119;48.288;8.726;2022-11-30T03:10:04;5.00;99.90
2226;DHT22;1119;48.288;8.726;2022-11-30T03:12:33;5.10;99.90
2226;DHT22;1119;48.288;8.726;2022-11-30T03:15:03;5.60;99.90
2226;DHT22;1119;48.288;8.726;2022-11-30T03:17:34;5.10;99.90
2226;DHT22;1119;48.288;8.726;2022-11-30T03:20:06;5.20;99.90
2226;DHT22;1119;48.288;8.726;2022-11-30T03:22:36;5.20;99.90
2226;DHT22;1119;48.288;8.726;2022-11-30T03:25:07;5.10;99.90
2226;DHT22;1119;48.288;8.726;2022-11-30T03:27:37;5.10;99.90
2226;DHT22;1119;48.288;8.726;2022-11-30T03:30:07;5.10;99.90
2226;DHT22;1119;48.288;8.726;2022-11-30T03:32:40;5.10;99.90
2226;DHT22;1119;48.288;8.726;2022-11-30T03:35:10;5.10;99.90
2226;DHT22;1119;48.288;8.726;2022-11-30T03:37:39;5.10;99.90
2226;DHT22;1119;48.288;8.726;2022-11-30T03:40:09;5.00;99.90
2226;DHT22;1119;48.288;8.726;2022-11-30T03:42:39;5.00;99.90
2226;DHT22;1119;48.288;8.726;2022-11-30T03:45:09;5.10;99.90
2226;DHT22;1119;48.288;8.726;2022-11-30T03:47:41;5.10;99.90
2226;DHT22;1119;48.288;8.726;2022-11-30T03:50:11;5.10;99.90
2226;DHT22;1119;48.288;8.726;2022-11-30T03:52:41;5.10;99.90
2226;DHT22;1119;48.288;8.726;2022-11-30T03:55:11;5.50;99.90
2226;DHT22;1119;48.288;8.726;2022-11-30T03:57:41;5.00;99.90
2226;DHT22;1119;48.288;8.726;2022-11-30T04:00:11;5.10;99.90
2226;DHT22;1119;48.288;8.726;2022-11-30T04:02:43;5.10;99.90
2226;DHT22;1119;48.288;8.726;2022-11-30T04:05:12;5.10;99.90
2226;DHT22;1119;48.288;8.726;2022-11-30T04:07:42;5.10;99.90
2226;DHT22;1119;48.288;8.726;2022-11-30T04:10:12;5.10;99.90
2226;DHT22;1119;48.288;8.726;2022-11-30T04:12:41;5.60;99.90
2226;DHT22;1119;48.288;8.726;2022-11-30T04:15:11;5.10;99.90
2226;DHT22;1119;48.288;8.726;2022-11-30T04:17:42;5.10;99.90
2226;DHT22;1119;48.288;8.726;2022-11-30T04:20:12;5.10;99.90
2226;DHT22;1119;48.288;8.726;2022-11-30T04:22:42;5.20;99.90
2226;DHT22;1119;48.288;8.726;2022-11-30T04:25:12;5.20;99.90
2226;DHT22;1119;48.288;8.726;2022-11-30T04:27:44;5.20;99.90
2226;DHT22;1119;48.288;8.726;2022-11-30T04:30:14;5.20;99.90
2226;DHT22;1119;48.288;8.726;2022-11-30T04:32:46;5.20;99.90
2226;DHT22;1119;48.288;8.726;2022-11-30T04:35:16;5.10;99.90
2226;DHT22;1119;48.288;8.726;2022-11-30T04:37:46;5.10;99.90
2226;DHT22;1119;48.288;8.726;2022-11-30T04:40:15;5.10;99.90
2226;DHT22;1119;48.288;8.726;2022-11-30T04:42:45;5.10;99.90
2226;DHT22;1119;48.288;8.726;2022-11-30T04:45:15;5.00;99.90
2226;DHT22;1119;48.288;8.726;2022-11-30T04:47:46;5.00;99.90
2226;DHT22;1119;48.288;8.726;2022-11-30T04:50:16;4.90;99.90
2226;DHT22;1119;48.288;8.726;2022-11-30T04:52:46;5.00;99.90
2226;DHT22;1119;48.288;8.726;2022-11-30T04:55:16;5.20;99.90
2226;DHT22;1119;48.288;8.726;2022-11-30T04:57:46;5.10;99.90
2226;DHT22;1119;48.288;8.726;2022-11-30T05:00:17;5.00;99.90
2226;DHT22;1119;48.288;8.726;2022-11-30T05:02:46;5.00;99.90
2226;DHT22;1119;48.288;8.726;2022-11-30T05:05:14;5.10;99.90
2226;DHT22;1119;48.288;8.726;2022-11-30T05:07:42;5.00;99.90
2226;DHT22;1119;48.288;8.726;2022-11-30T05:10:10;5.00;99.90
2226;DHT22;1119;48.288;8.726;2022-11-30T05:12:37;5.00;99.90
2226;DHT22;1119;48.288;8.726;2022-11-30T05:15:06;5.10;99.90
2226;DHT22;1119;48.288;8.726;2022-11-30T05:17:34;5.10;99.90
2226;DHT22;1119;48.288;8.726;2022-11-30T05:20:03;5.10;99.90
2226;DHT22;1119;48.288;8.726;2022-11-30T05:22:31;5.10;99.90
2226;DHT22;1119;48.288;8.726;2022-11-30T05:24:59;5.10;99.90
2226;DHT22;1119;48.288;8.726;2022-11-30T05:27:27;5.00;99.90
2226;DHT22;1119;48.288;8.726;2022-11-30T05:29:54;5.10;99.90
2226;DHT22;1119;48.288;8.726;2022-11-30T05:32:21;5.10;99.90
2226;DHT22;1119;48.288;8.726;2022-11-30T05:34:49;5.10;99.90
2226;DHT22;1119;48.288;8.726;2022-11-30T05:37:17;5.00;99.90
2226;DHT22;1119;48.288;8.726;2022-11-30T05:39:45;5.00;99.90
2226;DHT22;1119;48.288;8.726;2022-11-30T05:42:12;5.00;99.90
2226;DHT22;1119;48.288;8.726;2022-11-30T05:44:39;5.00;99.90
2226;DHT22;1119;48.288;8.726;2022-11-30T05:47:06;5.00;99.90
2226;DHT22;1119;48.288;8.726;2022-11-30T05:49:34;5.00;99.90
2226;DHT22;1119;48.288;8.726;2022-11-30T05:52:02;5.00;99.90
2226;DHT22;1119;48.288;8.726;2022-11-30T05:54:32;4.90;99.90
2226;DHT22;1119;48.288;8.726;2022-11-30T05:56:59;4.90;99.90
2226;DHT22;1119;48.288;8.726;2022-11-30T05:59:26;4.90;99.90
2226;DHT22;1119;48.288;8.726;2022-11-30T06:01:54;4.90;99.90
2226;DHT22;1119;48.288;8.726;2022-11-30T06:04:21;4.90;99.90
2226;DHT22;1119;48.288;8.726;2022-11-30T06:06:48;4.90;99.90
2226;DHT22;1119;48.288;8.726;2022-11-30T06:09:20;4.90;99.90
2226;DHT22;1119;48.288;8.726;2022-11-30T06:11:49;4.80;99.90
2226;DHT22;1119;48.288;8.726;2022-11-30T06:14:17;4.80;99.90
2226;DHT22;1119;48.288;8.726;2022-11-30T06:16:45;4.80;99.90
2226;DHT22;1119;48.288;8.726;2022-11-30T06:19:12;4.80;99.90
2226;DHT22;1119;48.288;8.726;2022-11-30T06:21:39;4.90;99.90
2226;DHT22;1119;48.288;8.726;2022-11-30T06:24:07;4.90;99.90
2226;DHT22;1119;48.288;8.726;2022-11-30T06:26:35;4.80;99.90
2226;DHT22;1119;48.288;8.726;2022-11-30T06:29:04;4.80;99.90
2226;DHT22;1119;48.288;8.726;2022-11-30T06:31:31;4.90;99.90
2226;DHT22;1119;48.288;8.726;2022-11-30T06:33:58;4.90;99.90
2226;DHT22;1119;48.288;8.726;2022-11-30T06:36:26;4.90;99.90
2226;DHT22;1119;48.288;8.726;2022-11-30T06:38:54;4.90;99.90
2226;DHT22;1119;48.288;8.726;2022-11-30T06:41:21;4.90;99.90
2226;DHT22;1119;48.288;8.726;2022-11-30T06:43:49;4.90;99.90
2226;DHT22;1119;48.288;8.726;2022-11-30T06:46:17;4.90;99.90
2226;DHT22;1119;48.288;8.726;2022-11-30T06:48:47;4.90;99.90
2226;DHT22;1119;48.288;8.726;2022-11-30T06:51:15;4.90;99.90
2226;DHT22;1119;48.288;8.726;2022-11-30T06:53:43;4.90;99.90
2226;DHT22;1119;48.288;8.726;2022-11-30T06:56:11;4.80;99.90
2226;DHT22;1119;48.288;8.726;2022-11-30T06:58:39;4.90;99.90
2226;DHT22;1119;48.288;8.726;2022-11-30T07:01:09;4.90;99.90
2226;DHT22;1119;48.288;8.726;2022-11-30T07:03:39;4.90;99.90
2226;DHT22;1119;48.288;8.726;2022-11-30T07:06:07;4.90;99.90
2226;DHT22;1119;48.288;8.726;2022-11-30T07:08:36;4.90;99.90
2226;DHT22;1119;48.288;8.726;2022-11-30T07:11:03;4.90;99.90
2226;DHT22;1119;48.288;8.726;2022-11-30T07:13:31;4.90;99.90
2226;DHT22;1119;48.288;8.726;2022-11-30T07:16:00;4.80;99.90
2226;DHT22;1119;48.288;8.726;2022-11-30T07:18:29;4.80;99.90
2226;DHT22;1119;48.288;8.726;2022-11-30T07:20:59;4.80;99.90
2226;DHT22;1119;48.288;8.726;2022-11-30T07:23:27;4.80;99.90
2226;DHT22;1119;48.288;8.726;2022-11-30T07:26:12;4.80;99.90
2226;DHT22;1119;48.288;8.726;2022-11-30T07:28:41;4.80;99.90
2226;DHT22;1119;48.288;8.726;2022-11-30T07:31:15;4.90;99.90
2226;DHT22;1119;48.288;8.726;2022-11-30T07:33:46;4.90;99.90
2226;DHT22;1119;48.288;8.726;2022-11-30T07:36:16;4.90;99.90
2226;DHT22;1119;48.288;8.726;2022-11-30T07:38:45;4.90;99.90
2226;DHT22;1119;48.288;8.726;2022-11-30T07:41:13;4.90;99.90
2226;DHT22;1119;48.288;8.726;2022-11-30T07:43:40;4.90;99.90
2226;DHT22;1119;48.288;8.726;2022-11-30T07:46:09;4.90;99.90
2226;DHT22;1119;48.288;8.726;2022-11-30T07:48:37;5.00;99.90
2226;DHT22;1119;48.288;8.726;2022-11-30T07:51:06;5.00;99.90
2226;DHT22;1119;48.288;8.726;2022-11-30T07:53:37;5.00;99.90
2226;DHT22;1119;48.288;8.726;2022-11-30T07:56:06;5.00;99.90
2226;DHT22;1119;48.288;8.726;2022-11-30T07:58:34;5.00;99.90
2226;DHT22;1119;48.288;8.726;2022-11-30T08:01:03;5.00;99.90
2226;DHT22;1119;48.288;8.726;2022-11-30T08:03:31;5.00;99.90
2226;DHT22;1119;48.288;8.726;2022-11-30T08:05:59;5.00;99.90
2226;DHT22;1119;48.288;8.726;2022-11-30T08:08:30;5.00;99.90
2226;DHT22;1119;48.288;8.726;2022-11-30T08:10:59;5.10;99.90
2226;DHT22;1119;48.288;8.726;2022-11-30T08:13:27;5.10;99.90
2226;DHT22;1119;48.288;8.726;2022-11-30T08:15:54;5.10;99.90
2226;DHT22;1119;48.288;8.726;2022-11-30T08:18:26;5.10;99.90
2226;DHT22;1119;48.288;8.726;2022-11-30T08:20:57;5.20;99.90
2226;DHT22;1119;48.288;8.726;2022-11-30T08:23:24;5.10;99.90
2226;DHT22;1119;48.288;8.726;2022-11-30T08:25:53;5.10;99.90
2226;DHT22;1119;48.288;8.726;2022-11-30T08:28:22;5.20;99.90
2226;DHT22;1119;48.288;8.726;2022-11-30T08:30:49;5.20;99.90
2226;DHT22;1119;48.288;8.726;2022-11-30T08:33:17;5.20;99.90
2226;DHT22;1119;48.288;8.726;2022-11-30T08:35:44;5.30;99.90
2226;DHT22;1119;48.288;8.726;2022-11-30T08:38:11;5.30;99.90
2226;DHT22;1119;48.288;8.726;2022-11-30T08:40:39;5.30;99.90
2226;DHT22;1119;48.288;8.726;2022-11-30T08:43:06;5.30;99.90
2226;DHT22;1119;48.288;8.726;2022-11-30T08:45:35;5.30;99.90
2226;DHT22;1119;48.288;8.726;2022-11-30T08:48:02;5.30;99.90
2226;DHT22;1119;48.288;8.726;2022-11-30T08:50:30;5.30;99.90
2226;DHT22;1119;48.288;8.726;2022-11-30T08:52:57;5.30;99.90
2226;DHT22;1119;48.288;8.726;2022-11-30T08:55:25;5.30;99.90
2226;DHT22;1119;48.288;8.726;2022-11-30T08:57:52;5.30;99.90
2226;DHT22;1119;48.288;8.726;2022-11-30T09:00:20;5.30;99.90
2226;DHT22;1119;48.288;8.726;2022-11-30T09:02:49;5.20;99.90
2226;DHT22;1119;48.288;8.726;2022-11-30T09:05:16;5.10;99.90
2226;DHT22;1119;48.288;8.726;2022-11-30T09:07:43;5.00;99.90
2226;DHT22;1119;48.288;8.726;2022-11-30T09:10:11;5.00;99.90
2226;DHT22;1119;48.288;8.726;2022-11-30T09:12:39;4.90;99.90
2226;DHT22;1119;48.288;8.726;2022-11-30T09:15:08;4.90;99.90
2226;DHT22;1119;48.288;8.726;2022-11-30T09:17:36;4.90;99.90
2226;DHT22;1119;48.288;8.726;2022-11-30T09:20:06;4.90;99.90
2226;DHT22;1119;48.288;8.726;2022-11-30T09:22:34;4.90;99.90
2226;DHT22;1119;48.288;8.726;2022-11-30T09:25:01;5.00;99.90
2226;DHT22;1119;48.288;8.726;2022-11-30T09:27:30;5.20;99.90
2226;DHT22;1119;48.288;8.726;2022-11-30T09:29:58;5.40;99.90
2226;DHT22;1119;48.288;8.726;2022-11-30T09:32:27;5.60;99.90
2226;DHT22;1119;48.288;8.726;2022-11-30T09:34:54;5.60;99.90
2226;DHT22;1119;48.288;8.726;2022-11-30T09:37:23;5.80;99.90
2226;DHT22;1119;48.288;8.726;2022-11-30T09:39:50;5.90;99.90
2226;DHT22;1119;48.288;8.726;2022-11-30T09:42:40;6.00;99.90
2226;DHT22;1119;48.288;8.726;2022-11-30T09:45:13;6.10;99.90
2226;DHT22;1119;48.288;8.726;2022-11-30T09:48:00;6.20;99.90
2226;DHT22;1119;48.288;8.726;2022-11-30T09:50:45;6.20;99.90
2226;DHT22;1119;48.288;8.726;2022-11-30T09:53:20;6.20;99.90
2226;DHT22;1119;48.288;8.726;2022-11-30T09:55:50;6.30;99.90
2226;DHT22;1119;48.288;8.726;2022-11-30T09:58:25;6.40;99.90
2226;DHT22;1119;48.288;8.726;2022-11-30T10:00:56;6.60;99.90
2226;DHT22;1119;48.288;8.726;2022-11-30T10:03:23;6.70;99.90
2226;DHT22;1119;48.288;8.726;2022-11-30T10:05:57;6.70;99.90
2226;DHT22;1119;48.288;8.726;2022-11-30T10:08:38;6.70;99.90
2226;DHT22;1119;48.288;8.726;2022-11-30T10:11:23;6.80;99.90
2226;DHT22;1119;48.288;8.726;2022-11-30T10:14:05;6.90;99.90
2226;DHT22;1119;48.288;8.726;2022-11-30T10:16:48;6.80;99.90
2226;DHT22;1119;48.288;8.726;2022-11-30T10:19:33;6.80;99.90
2226;DHT22;1119;48.288;8.726;2022-11-30T10:22:14;7.00;99.90
2226;DHT22;1119;48.288;8.726;2022-11-30T10:25:02;6.90;99.90
2226;DHT22;1119;48.288;8.726;2022-11-30T10:27:44;6.80;99.90
2226;DHT22;1119;48.288;8.726;2022-11-30T10:30:17;6.80;99.90
2226;DHT22;1119;48.288;8.726;2022-11-30T10:32:50;6.80;99.90
2226;DHT22;1119;48.288;8.726;2022-11-30T10:35:25;6.80;99.90
2226;DHT22;1119;48.288;8.726;2022-11-30T10:38:03;6.90;99.90
2226;DHT22;1119;48.288;8.726;2022-11-30T10:40:39;6.90;99.90
2226;DHT22;1119;48.288;8.726;2022-11-30T10:43:16;7.00;99.90
2226;DHT22;1119;48.288;8.726;2022-11-30T10:45:47;7.00;99.90
2226;DHT22;1119;48.288;8.726;2022-11-30T10:48:21;6.90;99.90
2226;DHT22;1119;48.288;8.726;2022-11-30T10:50:53;6.80;99.90
2226;DHT22;1119;48.288;8.726;2022-11-30T10:53:20;6.70;99.90
2226;DHT22;1119;48.288;8.726;2022-11-30T10:55:54;6.60;99.90
2226;DHT22;1119;48.288;8.726;2022-11-30T10:58:27;6.50;99.90
2226;DHT22;1119;48.288;8.726;2022-11-30T11:01:01;6.50;99.90
2226;DHT22;1119;48.288;8.726;2022-11-30T11:03:30;6.40;99.90
2226;DHT22;1119;48.288;8.726;2022-11-30T11:06:12;6.30;99.90
2226;DHT22;1119;48.288;8.726;2022-11-30T11:08:42;6.20;99.90
2226;DHT22;1119;48.288;8.726;2022-11-30T11:11:35;6.20;99.90
2226;DHT22;1119;48.288;8.726;2022-11-30T11:14:13;6.10;99.90
2226;DHT22;1119;48.288;8.726;2022-11-30T11:16:56;6.00;99.90
2226;DHT22;1119;48.288;8.726;2022-11-30T11:19:31;5.90;99.90
2226;DHT22;1119;48.288;8.726;2022-11-30T11:22:02;5.80;99.90
2226;DHT22;1119;48.288;8.726;2022-11-30T11:24:31;5.70;99.90
2226;DHT22;1119;48.288;8.726;2022-11-30T11:27:00;5.70;99.90
2226;DHT22;1119;48.288;8.726;2022-11-30T11:29:30;5.80;99.90
2226;DHT22;1119;48.288;8.726;2022-11-30T11:32:19;5.80;99.90
2226;DHT22;1119;48.288;8.726;2022-11-30T11:34:49;5.80;99.90
2226;DHT22;1119;48.288;8.726;2022-11-30T11:37:20;5.80;99.90
2226;DHT22;1119;48.288;8.726;2022-11-30T11:40:01;5.80;99.90
2226;DHT22;1119;48.288;8.726;2022-11-30T11:42:41;5.90;99.90
2226;DHT22;1119;48.288;8.726;2022-11-30T11:45:16;5.90;99.90
2226;DHT22;1119;48.288;8.726;2022-11-30T11:47:46;5.90;99.90
2226;DHT22;1119;48.288;8.726;2022-11-30T11:50:31;5.80;99.90
2226;DHT22;1119;48.288;8.726;2022-11-30T11:53:14;5.70;99.90
2226;DHT22;1119;48.288;8.726;2022-11-30T11:55:50;5.60;99.90
2226;DHT22;1119;48.288;8.726;2022-11-30T11:58:27;5.60;99.90
2226;DHT22;1119;48.288;8.726;2022-11-30T12:01:03;5.50;99.90
2226;DHT22;1119;48.288;8.726;2022-11-30T12:03:38;5.60;99.90
2226;DHT22;1119;48.288;8.726;2022-11-30T12:06:12;5.60;99.90
2226;DHT22;1119;48.288;8.726;2022-11-30T12:08:46;5.60;99.90
2226;DHT22;1119;48.288;8.726;2022-11-30T12:11:20;5.60;99.90
2226;DHT22;1119;48.288;8.726;2022-11-30T12:13:52;5.70;99.90
2226;DHT22;1119;48.288;8.726;2022-11-30T12:16:31;5.80;99.90
2226;DHT22;1119;48.288;8.726;2022-11-30T12:19:11;5.80;99.90
2226;DHT22;1119;48.288;8.726;2022-11-30T12:21:52;5.80;99.90
2226;DHT22;1119;48.288;8.726;2022-11-30T12:24:39;5.80;99.90
2226;DHT22;1119;48.288;8.726;2022-11-30T12:27:24;5.80;99.90
2226;DHT22;1119;48.288;8.726;2022-11-30T12:30:02;5.70;99.90
2226;DHT22;1119;48.288;8.726;2022-11-30T12:32:48;5.70;99.90
2226;DHT22;1119;48.288;8.726;2022-11-30T12:35:42;5.60;99.90
2226;DHT22;1119;48.288;8.726;2022-11-30T12:38:25;5.60;99.90
2226;DHT22;1119;48.288;8.726;2022-11-30T12:41:14;5.50;99.90
2226;DHT22;1119;48.288;8.726;2022-11-30T12:43:55;5.50;99.90
2226;DHT22;1119;48.288;8.726;2022-11-30T12:46:35;5.40;99.90
2226;DHT22;1119;48.288;8.726;2022-11-30T12:49:24;5.40;99.90
2226;DHT22;1119;48.288;8.726;2022-11-30T12:52:04;5.40;99.90
2226;DHT22;1119;48.288;8.726;2022-11-30T12:54:43;5.30;99.90
2226;DHT22;1119;48.288;8.726;2022-11-30T12:57:18;5.30;99.90
2226;DHT22;1119;48.288;8.726;2022-11-30T12:59:58;5.30;99.90
2226;DHT22;1119;48.288;8.726;2022-11-30T13:02:44;5.30;99.90
2226;DHT22;1119;48.288;8.726;2022-11-30T13:05:24;5.30;99.90
2226;DHT22;1119;48.288;8.726;2022-11-30T13:08:01;5.20;99.90
2226;DHT22;1119;48.288;8.726;2022-11-30T13:10:36;5.20;99.90
2226;DHT22;1119;48.288;8.726;2022-11-30T13:13:12;5.20;99.90
2226;DHT22;1119;48.288;8.726;2022-11-30T13:15:41;5.20;99.90
2226;DHT22;1119;48.288;8.726;2022-11-30T13:18:16;5.20;99.90
2226;DHT22;1119;48.288;8.726;2022-11-30T13:20:49;5.20;99.90
2226;DHT22;1119;48.288;8.726;2022-11-30T13:23:26;5.20;99.90
2226;DHT22;1119;48.288;8.726;2022-11-30T13:26:02;5.20;99.90
2226;DHT22;1119;48.288;8.726;2022-11-30T13:28:48;5.20;99.90
2226;DHT22;1119;48.288;8.726;2022-11-30T13:31:24;5.10;99.90
2226;DHT22;1119;48.288;8.726;2022-11-30T13:33:58;5.10;99.90
2226;DHT22;1119;48.288;8.726;2022-11-30T13:36:35;5.10;99.90
2226;DHT22;1119;48.288;8.726;2022-11-30T13:39:20;5.10;99.90
2226;DHT22;1119;48.288;8.726;2022-11-30T13:41:50;5.10;99.90
2226;DHT22;1119;48.288;8.726;2022-11-30T13:44:37;5.10;99.90
2226;DHT22;1119;48.288;8.726;2022-11-30T13:47:15;5.10;99.90
2226;DHT22;1119;48.288;8.726;2022-11-30T13:49:46;5.00;99.90
2226;DHT22;1119;48.288;8.726;2022-11-30T13:55:57;4.90;99.90
2226;DHT22;1119;48.288;8.726;2022-11-30T13:58:29;5.00;99.90
2226;DHT22;1119;48.288;8.726;2022-11-30T14:01:22;5.00;99.90
2226;DHT22;1119;48.288;8.726;2022-11-30T14:07:15;4.90;99.90
2226;DHT22;1119;48.288;8.726;2022-11-30T14:10:00;4.90;99.90
2226;DHT22;1119;48.288;8.726;2022-11-30T14:12:58;4.90;99.90
2226;DHT22;1119;48.288;8.726;2022-11-30T14:18:26;4.90;99.90
2226;DHT22;1119;48.288;8.726;2022-11-30T14:21:00;4.90;99.90
2226;DHT22;1119;48.288;8.726;2022-11-30T14:23:45;4.90;99.90
2226;DHT22;1119;48.288;8.726;2022-11-30T14:26:16;4.80;99.90
2226;DHT22;1119;48.288;8.726;2022-11-30T14:28:52;4.80;99.90
2226;DHT22;1119;48.288;8.726;2022-11-30T14:31:30;4.70;99.90
2226;DHT22;1119;48.288;8.726;2022-11-30T14:34:02;4.70;99.90
2226;DHT22;1119;48.288;8.726;2022-11-30T14:36:36;4.70;99.90
2226;DHT22;1119;48.288;8.726;2022-11-30T14:39:30;4.60;99.90
2226;DHT22;1119;48.288;8.726;2022-11-30T14:41:59;4.70;99.90
2226;DHT22;1119;48.288;8.726;2022-11-30T14:44:27;4.70;99.90
2226;DHT22;1119;48.288;8.726;2022-11-30T14:47:11;4.70;99.90
2226;DHT22;1119;48.288;8.726;2022-11-30T14:49:44;4.70;99.90
2226;DHT22;1119;48.288;8.726;2022-11-30T14:52:14;4.70;99.90
2226;DHT22;1119;48.288;8.726;2022-11-30T14:55:07;4.80;99.90
2226;DHT22;1119;48.288;8.726;2022-11-30T14:57:44;4.90;99.90
2226;DHT22;1119;48.288;8.726;2022-11-30T15:00:16;4.90;99.90
2226;DHT22;1119;48.288;8.726;2022-11-30T15:02:46;5.00;99.90
2226;DHT22;1119;48.288;8.726;2022-11-30T15:05:16;5.10;99.90
2226;DHT22;1119;48.288;8.726;2022-11-30T15:07:45;5.10;99.90
2226;DHT22;1119;48.288;8.726;2022-11-30T15:10:17;5.10;99.90
2226;DHT22;1119;48.288;8.726;2022-11-30T15:12:49;5.10;99.90
2226;DHT22;1119;48.288;8.726;2022-11-30T15:15:19;5.10;99.90
2226;DHT22;1119;48.288;8.726;2022-11-30T15:17:50;5.10;99.90
2226;DHT22;1119;48.288;8.726;2022-11-30T15:20:26;5.00;99.90
2226;DHT22;1119;48.288;8.726;2022-11-30T15:22:58;5.00;99.90
2226;DHT22;1119;48.288;8.726;2022-11-30T15:25:33;5.00;99.90
2226;DHT22;1119;48.288;8.726;2022-11-30T15:28:02;5.00;99.90
2226;DHT22;1119;48.288;8.726;2022-11-30T15:30:34;4.90;99.90
2226;DHT22;1119;48.288;8.726;2022-11-30T15:33:03;4.90;99.90
2226;DHT22;1119;48.288;8.726;2022-11-30T15:35:30;4.90;99.90
2226;DHT22;1119;48.288;8.726;2022-11-30T15:37:58;4.90;99.90
2226;DHT22;1119;48.288;8.726;2022-11-30T15:40:31;4.90;99.90
2226;DHT22;1119;48.288;8.726;2022-11-30T15:43:00;4.90;99.90
2226;DHT22;1119;48.288;8.726;2022-11-30T15:45:29;4.80;99.90
2226;DHT22;1119;48.288;8.726;2022-11-30T15:47:58;4.80;99.90
2226;DHT22;1119;48.288;8.726;2022-11-30T15:50:36;4.70;99.90
2226;DHT22;1119;48.288;8.726;2022-11-30T15:53:26;4.70;99.90
2226;DHT22;1119;48.288;8.726;2022-11-30T15:55:59;4.60;99.90
2226;DHT22;1119;48.288;8.726;2022-11-30T15:58:38;4.70;99.90
2226;DHT22;1119;48.288;8.726;2022-11-30T16:01:13;4.60;99.90
2226;DHT22;1119;48.288;8.726;2022-11-30T16:04:00;4.60;99.90
2226;DHT22;1119;48.288;8.726;2022-11-30T16:06:33;4.60;99.90
2226;DHT22;1119;48.288;8.726;2022-11-30T16:09:06;4.60;99.90
2226;DHT22;1119;48.288;8.726;2022-11-30T16:11:45;4.70;99.90
2226;DHT22;1119;48.288;8.726;2022-11-30T16:14:14;4.70;99.90
2226;DHT22;1119;48.288;8.726;2022-11-30T16:16:42;4.70;99.90
2226;DHT22;1119;48.288;8.726;2022-11-30T16:19:10;4.70;99.90
2226;DHT22;1119;48.288;8.726;2022-11-30T16:21:38;4.80;99.90
2226;DHT22;1119;48.288;8.726;2022-11-30T16:24:06;4.70;99.90
2226;DHT22;1119;48.288;8.726;2022-11-30T16:26:35;4.80;99.90
2226;DHT22;1119;48.288;8.726;2022-11-30T16:29:04;4.80;99.90
2226;DHT22;1119;48.288;8.726;2022-11-30T16:31:31;4.80;99.90
2226;DHT22;1119;48.288;8.726;2022-11-30T16:33:58;4.90;99.90
2226;DHT22;1119;48.288;8.726;2022-11-30T16:36:25;4.90;99.90
2226;DHT22;1119;48.288;8.726;2022-11-30T16:38:54;4.90;99.90
2226;DHT22;1119;48.288;8.726;2022-11-30T16:41:23;4.90;99.90
2226;DHT22;1119;48.288;8.726;2022-11-30T16:43:52;4.90;99.90
2226;DHT22;1119;48.288;8.726;2022-11-30T16:46:24;4.90;99.90
2226;DHT22;1119;48.288;8.726;2022-11-30T16:48:52;4.80;99.90
2226;DHT22;1119;48.288;8.726;2022-11-30T16:51:22;4.80;99.90
2226;DHT22;1119;48.288;8.726;2022-11-30T16:53:52;4.80;99.90
2226;DHT22;1119;48.288;8.726;2022-11-30T16:56:19;4.80;99.90
2226;DHT22;1119;48.288;8.726;2022-11-30T16:58:47;4.70;99.90
2226;DHT22;1119;48.288;8.726;2022-11-30T17:01:17;4.70;99.90